Time;durP1;ratioP1;P1;durP2;ratioP2;P2;SDS_P1;SDS_P2;PMS_P1;PMS_P2;Temp;Humidity;BMP_temperature;BMP_pressure;BME280_temperature;BME280_humidity;BME280_pressure;Samples;Min_cycle;Max_cycle;Signal;HPM_P1;HPM_P2
2019/12/16 00:00:37;;;;;;;7.8;7;;;;;;;7.4;100;955.7433;;;;
2019/12/16 00:03:02;;;;;;;7.5;6.8;;;;;;;7.38;100;955.7256;;;;
2019/12/16 00:05:27;;;;;;;7.7;6.9;;;;;;;7.36;100;955.7148;;;;
2019/12/16 00:07:52;;;;;;;7.6;6.8;;;;;;;7.35;100;955.6819;;;;
2019/12/16 00:10:17;;;;;;;7.4;6.7;;;;;;;7.14;100;955.6102;;;;
2019/12/16 00:12:42;;;;;;;8.3;7.5;;;;;;;7.32;100;955.5485;;;;
2019/12/16 00:15:08;;;;;;;7.6;6.9;;;;;;;7.41;100;955.5164;;;;
2019/12/16 00:17:33;;;;;;;6.8;6.2;;;;;;;7.42;100;955.5036;;;;
2019/12/16 00:19:58;;;;;;;8;7.2;;;;;;;7.11;100;955.4603;;;;
2019/12/16 00:22:23;;;;;;;8.1;7.3;;;;;;;7.02;100;955.45;;;;
2019/12/16 00:24:48;;;;;;;8.2;7.4;;;;;;;7.02;100;955.4969;;;;
2019/12/16 00:27:14;;;;;;;8.1;7.4;;;;;;;6.91;100;955.532;;;;
2019/12/16 00:29:39;;;;;;;7.8;7.1;;;;;;;6.87;100;955.553;;;;
2019/12/16 00:32:04;;;;;;;8.1;7.4;;;;;;;6.88;100;955.5463;;;;
2019/12/16 00:34:29;;;;;;;7.8;7;;;;;;;6.91;100;955.5313;;;;
2019/12/16 00:36:55;;;;;;;8.3;7.5;;;;;;;6.85;100;955.4336;;;;
2019/12/16 00:39:20;;;;;;;7.9;7.1;;;;;;;6.89;100;955.3958;;;;
2019/12/16 00:41:45;;;;;;;7.4;6.7;;;;;;;6.96;100;955.3878;;;;
2019/12/16 00:44:10;;;;;;;7.6;6.8;;;;;;;6.91;100;955.4239;;;;
2019/12/16 00:47:47;;;;;;;7;6.4;;;;;;;6.85;100;955.375;;;;
2019/12/16 00:49:03;;;;;;;7.6;6.9;;;;;;;6.74;100;955.3836;;;;
2019/12/16 00:51:25;;;;;;;7.8;7;;;;;;;6.79;100;955.3745;;;;
2019/12/16 00:53:51;;;;;;;7.8;7.1;;;;;;;6.62;100;955.4072;;;;
2019/12/16 00:56:16;;;;;;;7.9;7;;;;;;;6.71;100;955.4305;;;;
2019/12/16 00:58:41;;;;;;;7.7;6.9;;;;;;;6.69;100;955.46;;;;
2019/12/16 01:01:06;;;;;;;7.8;7;;;;;;;6.62;100;955.4897;;;;
2019/12/16 01:03:31;;;;;;;7.6;6.9;;;;;;;6.56;100;955.5714;;;;
2019/12/16 01:05:56;;;;;;;8;6.8;;;;;;;6.6;100;955.502;;;;
2019/12/16 01:08:21;;;;;;;7.4;6.6;;;;;;;6.65;100;955.539;;;;
2019/12/16 01:10:47;;;;;;;6.2;5.7;;;;;;;6.7;100;955.5394;;;;
2019/12/16 01:13:12;;;;;;;6.6;6;;;;;;;6.73;100;955.601;;;;
2019/12/16 01:15:37;;;;;;;6.7;6.1;;;;;;;6.78;100;955.6437;;;;
2019/12/16 01:18:02;;;;;;;6.7;6.1;;;;;;;6.69;100;955.6817;;;;
2019/12/16 01:20:27;;;;;;;6.2;5.7;;;;;;;6.65;100;955.752;;;;
2019/12/16 01:22:52;;;;;;;6.9;6.2;;;;;;;6.58;100;955.7922;;;;
2019/12/16 01:25:18;;;;;;;6.3;5.7;;;;;;;6.62;100;955.7496;;;;
2019/12/16 01:27:43;;;;;;;6.8;6.1;;;;;;;6.46;100;955.7274;;;;
2019/12/16 01:30:08;;;;;;;6.8;6.1;;;;;;;6.32;100;955.7249;;;;
2019/12/16 01:32:33;;;;;;;7;6.3;;;;;;;6.31;100;955.6916;;;;
2019/12/16 01:34:58;;;;;;;6.8;6.2;;;;;;;6.25;100;955.6465;;;;
2019/12/16 01:37:23;;;;;;;7.3;6.7;;;;;;;6.2;100;955.5887;;;;
2019/12/16 01:39:48;;;;;;;7.4;6.8;;;;;;;6.2;100;955.6454;;;;
2019/12/16 01:42:14;;;;;;;7.5;6.8;;;;;;;6.22;100;955.7156;;;;
2019/12/16 01:44:39;;;;;;;7.8;7.1;;;;;;;6.12;100;955.5863;;;;
2019/12/16 01:47:04;;;;;;;8.9;8.1;;;;;;;6.09;100;955.574;;;;
2019/12/16 01:49:29;;;;;;;8.8;7.9;;;;;;;6.01;100;955.6016;;;;
2019/12/16 01:51:54;;;;;;;8.9;8;;;;;;;6.03;100;955.5563;;;;
2019/12/16 01:54:20;;;;;;;9.1;8.2;;;;;;;5.94;100;955.5219;;;;
2019/12/16 02:01:38;;;;;;;9.7;8.8;;;;;;;5.86;100;955.4414;;;;
2019/12/16 02:04:01;;;;;;;9.6;8.6;;;;;;;5.99;100;955.4467;;;;
2019/12/16 02:06:26;;;;;;;8.7;8;;;;;;;5.95;100;955.4817;;;;
2019/12/16 02:08:51;;;;;;;8.1;7.4;;;;;;;6.02;100;955.5092;;;;
2019/12/16 02:11:16;;;;;;;8.4;7.7;;;;;;;6;100;955.4727;;;;
2019/12/16 02:13:41;;;;;;;8.4;7.5;;;;;;;5.95;100;955.4716;;;;
2019/12/16 02:16:07;;;;;;;8;7.2;;;;;;;5.92;100;955.5144;;;;
2019/12/16 02:18:32;;;;;;;7.2;6.6;;;;;;;5.97;100;955.4888;;;;
2019/12/16 02:20:58;;;;;;;8.1;7.4;;;;;;;5.88;100;955.5368;;;;
2019/12/16 02:23:23;;;;;;;8.8;7.9;;;;;;;5.76;100;955.5364;;;;
2019/12/16 02:25:48;;;;;;;8.7;7.9;;;;;;;5.66;100;955.4291;;;;
2019/12/16 02:28:13;;;;;;;7.6;6.9;;;;;;;5.88;100;955.3378;;;;
2019/12/16 02:30:39;;;;;;;7.3;6.6;;;;;;;5.94;100;955.3538;;;;
2019/12/16 02:33:04;;;;;;;7.6;6.9;;;;;;;5.83;100;955.3645;;;;
2019/12/16 02:35:29;;;;;;;8.4;7.6;;;;;;;5.66;100;955.3814;;;;
2019/12/16 02:37:55;;;;;;;8.3;7.5;;;;;;;5.57;100;955.3907;;;;
2019/12/16 02:40:20;;;;;;;8.2;7.5;;;;;;;5.54;100;955.3649;;;;
2019/12/16 02:42:45;;;;;;;8.8;8;;;;;;;5.58;100;955.4105;;;;
2019/12/16 02:45:10;;;;;;;8.6;7.9;;;;;;;5.54;100;955.3988;;;;
2019/12/16 02:47:46;;;;;;;8.5;7.7;;;;;;;5.49;100;955.3745;;;;
2019/12/16 02:50:15;;;;;;;9.3;8.3;;;;;;;5.34;100;955.3826;;;;
2019/12/16 02:52:25;;;;;;;9.7;8.7;;;;;;;5.34;100;955.3762;;;;
2019/12/16 02:54:50;;;;;;;9.8;8.9;;;;;;;5.36;100;955.2952;;;;
2019/12/16 02:57:15;;;;;;;8.7;7.9;;;;;;;5.46;100;955.2709;;;;
2019/12/16 02:59:41;;;;;;;8.1;7.3;;;;;;;5.56;100;955.1769;;;;
2019/12/16 03:02:08;;;;;;;8.2;7.4;;;;;;;5.53;100;955.1242;;;;
2019/12/16 03:04:32;;;;;;;8;7.2;;;;;;;5.34;100;955.074;;;;
2019/12/16 03:06:57;;;;;;;8;7.3;;;;;;;5.34;100;955.0643;;;;
2019/12/16 03:09:22;;;;;;;8.4;7.6;;;;;;;5.4;100;955.0945;;;;
2019/12/16 03:11:48;;;;;;;8;7.3;;;;;;;5.37;100;955.0823;;;;
2019/12/16 03:14:13;;;;;;;7.6;6.7;;;;;;;5.44;100;955.0928;;;;
2019/12/16 03:16:38;;;;;;;7.3;6.6;;;;;;;5.25;100;955.0145;;;;
2019/12/16 03:19:04;;;;;;;7.1;6.4;;;;;;;5.44;100;954.9154;;;;
2019/12/16 03:21:29;;;;;;;6.6;5.9;;;;;;;5.4;100;954.9185;;;;
2019/12/16 03:23:54;;;;;;;6.7;6;;;;;;;5.22;100;954.9022;;;;
2019/12/16 03:26:19;;;;;;;7.1;6.4;;;;;;;5.18;100;954.8454;;;;
2019/12/16 03:28:45;;;;;;;6.9;6.3;;;;;;;5.23;100;954.8152;;;;
2019/12/16 03:31:10;;;;;;;6.6;5.9;;;;;;;5.2;100;954.8538;;;;
2019/12/16 03:33:36;;;;;;;6;5.4;;;;;;;5.23;100;954.9348;;;;
2019/12/16 03:36:02;;;;;;;6.3;5.7;;;;;;;5.11;100;954.9268;;;;
2019/12/16 03:38:26;;;;;;;6.1;5.3;;;;;;;5.21;100;954.9327;;;;
2019/12/16 03:40:51;;;;;;;6.2;5.6;;;;;;;5.12;100;954.9428;;;;
2019/12/16 03:43:17;;;;;;;6.5;5.4;;;;;;;5.13;100;954.8597;;;;
2019/12/16 03:45:42;;;;;;;6.3;5.5;;;;;;;5.17;100;954.89;;;;
2019/12/16 03:48:07;;;;;;;5.6;5.1;;;;;;;5.16;100;954.8552;;;;
2019/12/16 03:50:32;;;;;;;6.9;5;;;;;;;5.19;100;954.9383;;;;
2019/12/16 03:52:58;;;;;;;6.1;5.4;;;;;;;5.07;100;954.9628;;;;
2019/12/16 03:55:23;;;;;;;5.8;5.3;;;;;;;5;100;954.9565;;;;
2019/12/16 03:57:48;;;;;;;6.7;5.2;;;;;;;5.02;100;954.9402;;;;
2019/12/16 04:02:29;;;;;;;5.8;5.3;;;;;;;4.94;100;954.9442;;;;
2019/12/16 04:04:54;;;;;;;6.1;5.5;;;;;;;4.89;100;954.9384;;;;
2019/12/16 04:07:19;;;;;;;6.1;5.5;;;;;;;4.97;100;954.8708;;;;
2019/12/16 04:09:44;;;;;;;8;5.3;;;;;;;4.85;100;954.8605;;;;
2019/12/16 04:12:09;;;;;;;6.4;5.5;;;;;;;4.86;100;954.9189;;;;
2019/12/16 04:14:35;;;;;;;6.5;5.6;;;;;;;4.87;100;954.9731;;;;
2019/12/16 04:17:06;;;;;;;5.4;4.9;;;;;;;4.94;100;954.9788;;;;
2019/12/16 04:19:32;;;;;;;5.7;5.1;;;;;;;4.79;100;955.0007;;;;
2019/12/16 14:01:16;;;;;;;6.4;4.2;;;;;;;7.23;82.7959;953.0641;;;;
2019/12/16 14:03:46;;;;;;;7.4;4.3;;;;;;;7.33;81.58203;953.0613;;;;
2019/12/16 14:05:53;;;;;;;6.2;4.4;;;;;;;7.34;81.61719;953.0851;;;;
2019/12/16 14:07:59;;;;;;;6.9;4.6;;;;;;;7.35;82.74023;953.0796;;;;
2019/12/16 14:10:11;;;;;;;7.8;4.6;;;;;;;7.31;83.9082;953.1031;;;;
2019/12/16 14:12:35;;;;;;;11.8;5.7;;;;;;;7.06;82.36426;953.0328;;;;
2019/12/16 14:15:00;;;;;;;7.6;5.3;;;;;;;7.08;85.41699;953.0407;;;;
2019/12/16 14:17:25;;;;;;;10.6;5.9;;;;;;;7.01;85.73242;953.1534;;;;
2019/12/16 14:19:50;;;;;;;9;4.9;;;;;;;7.1;83.02148;953.2073;;;;
2019/12/16 14:22:15;;;;;;;8;5.4;;;;;;;7.11;84.17773;953.3087;;;;
2019/12/16 14:24:40;;;;;;;10.9;5.7;;;;;;;6.98;84.99805;953.3253;;;;
2019/12/16 14:27:05;;;;;;;9.9;5.6;;;;;;;6.95;84.54785;953.2445;;;;
2019/12/16 14:29:30;;;;;;;9.1;5.7;;;;;;;6.97;86.45703;953.4266;;;;
2019/12/16 14:31:55;;;;;;;10.2;6;;;;;;;6.79;87.9043;953.3568;;;;
2019/12/16 14:34:20;;;;;;;11.2;6.4;;;;;;;6.7;85.83301;953.2932;;;;
2019/12/16 14:36:46;;;;;;;11.8;6.2;;;;;;;6.72;85.32129;953.2706;;;;
2019/12/16 14:39:11;;;;;;;10.5;6;;;;;;;6.65;85.32031;953.2797;;;;
2019/12/16 14:41:36;;;;;;;9.2;5.9;;;;;;;6.64;85.54688;953.4026;;;;
2019/12/16 14:44:01;;;;;;;10.2;5.9;;;;;;;6.77;84.64746;953.4436;;;;
2019/12/16 14:46:26;;;;;;;9.1;6;;;;;;;6.66;87.42969;953.3656;;;;
2019/12/16 14:48:51;;;;;;;8.6;5.7;;;;;;;6.67;83.46484;953.3976;;;;
2019/12/16 14:51:16;;;;;;;9.2;5.7;;;;;;;6.69;86.61621;953.427;;;;
2019/12/16 14:53:41;;;;;;;9.3;5.9;;;;;;;6.66;84.93262;953.3954;;;;
2019/12/16 14:56:06;;;;;;;10;6.1;;;;;;;6.55;85.8457;953.4324;;;;
2019/12/16 14:58:31;;;;;;;8.5;5.9;;;;;;;6.53;86.02539;953.4395;;;;
2019/12/16 15:00:56;;;;;;;9.4;6.3;;;;;;;6.67;84.14941;953.4414;;;;
2019/12/16 15:03:21;;;;;;;11.7;6.7;;;;;;;6.62;86.39844;953.4094;;;;
2019/12/16 15:05:47;;;;;;;12.5;7.3;;;;;;;6.45;86.72656;953.4634;;;;
2019/12/16 15:08:12;;;;;;;11.5;6.8;;;;;;;6.4;86.14844;953.4575;;;;
2019/12/16 15:10:37;;;;;;;11.5;6.8;;;;;;;6.52;85.66992;953.5248;;;;
2019/12/16 15:13:04;;;;;;;11;7.4;;;;;;;6.46;87.97168;953.5128;;;;
2019/12/16 15:18:00;;;;;;;13.6;7.2;;;;;;;6.47;86.03516;953.459;;;;
2019/12/16 15:20:17;;;;;;;9.2;6.8;;;;;;;6.41;87.29004;953.4236;;;;
2019/12/16 15:22:42;;;;;;;11.9;6.5;;;;;;;6.31;87.9873;953.5297;;;;
2019/12/16 15:25:07;;;;;;;10.7;6.4;;;;;;;6.31;88.93359;953.4994;;;;
2019/12/16 15:27:33;;;;;;;8.9;6.3;;;;;;;6.23;88.97363;953.4766;;;;
2019/12/16 15:29:58;;;;;;;9.8;6.3;;;;;;;6.21;87.70313;953.4808;;;;
2019/12/16 15:32:23;;;;;;;10.4;7.1;;;;;;;5.99;90.62012;953.543;;;;
2019/12/16 15:34:48;;;;;;;13.8;6.9;;;;;;;6.1;90.43945;953.5146;;;;
2019/12/16 15:37:13;;;;;;;11;6.5;;;;;;;6.13;88.11035;953.5441;;;;
2019/12/16 15:39:38;;;;;;;15.6;7.9;;;;;;;6.12;88.76758;953.5181;;;;
2019/12/16 15:42:03;;;;;;;15.3;11.3;;;;;;;6.25;88.05664;953.495;;;;
2019/12/16 15:44:28;;;;;;;13.7;11.1;;;;;;;6.15;88.49023;953.366;;;;
2019/12/16 15:46:54;;;;;;;14.1;10.7;;;;;;;5.88;91.1875;953.3472;;;;
2019/12/16 15:49:19;;;;;;;18.6;14.3;;;;;;;5.86;89.44141;953.4171;;;;
2019/12/16 15:51:44;;;;;;;11.8;8.7;;;;;;;5.96;88.99707;953.3555;;;;
2019/12/16 15:54:09;;;;;;;12.5;10.2;;;;;;;6.01;89.35938;953.3194;;;;
2019/12/16 15:56:34;;;;;;;18.5;16.1;;;;;;;5.75;90.78516;953.3076;;;;
2019/12/16 15:58:59;;;;;;;19.1;17;;;;;;;5.88;89.60645;953.3272;;;;
2019/12/16 16:01:24;;;;;;;24.2;21.6;;;;;;;5.93;89.78711;953.3488;;;;
2019/12/16 16:03:59;;;;;;;15.3;10.9;;;;;;;5.83;89.98242;953.337;;;;
2019/12/16 16:06:14;;;;;;;13.1;10.1;;;;;;;5.86;90.7627;953.2933;;;;
2019/12/16 16:08:39;;;;;;;22.2;19.9;;;;;;;5.89;89.96387;953.318;;;;
2019/12/16 16:11:04;;;;;;;16.4;14.7;;;;;;;5.77;90.40332;953.3284;;;;
2019/12/16 16:13:30;;;;;;;12.1;10.4;;;;;;;5.83;90.0625;953.3022;;;;
2019/12/16 16:15:55;;;;;;;11.7;9.9;;;;;;;5.8;91.34082;953.295;;;;
2019/12/16 16:18:20;;;;;;;11.8;9.7;;;;;;;5.74;91.27246;953.2112;;;;
2019/12/16 16:20:46;;;;;;;12;8.7;;;;;;;5.7;90.60254;953.192;;;;
2019/12/16 16:23:11;;;;;;;10.7;8.2;;;;;;;5.75;90.33887;953.1555;;;;
2019/12/16 16:25:36;;;;;;;10;8;;;;;;;5.72;91.58496;953.3132;;;;
2019/12/16 16:28:01;;;;;;;10.7;8.3;;;;;;;5.73;92.05566;953.3254;;;;
2019/12/16 16:30:27;;;;;;;13;8.6;;;;;;;5.63;91.81836;953.4061;;;;
2019/12/16 16:32:52;;;;;;;9.4;7.8;;;;;;;5.72;90.99512;953.3997;;;;
2019/12/16 16:35:17;;;;;;;11.8;8.2;;;;;;;5.71;91.84668;953.3557;;;;
2019/12/16 16:37:42;;;;;;;10.8;8.3;;;;;;;5.68;92.22656;953.3928;;;;
2019/12/16 16:40:07;;;;;;;10.4;8;;;;;;;5.59;92.83496;953.4044;;;;
2019/12/16 16:42:32;;;;;;;11.1;8.9;;;;;;;5.49;93.12012;953.3036;;;;
2019/12/16 16:44:57;;;;;;;11.6;9.8;;;;;;;5.58;92.67188;953.293;;;;
2019/12/16 16:47:22;;;;;;;15.8;12.5;;;;;;;5.64;93.33203;953.4669;;;;
2019/12/16 16:49:47;;;;;;;31.1;22.3;;;;;;;5.78;91.48535;953.3851;;;;
2019/12/16 16:52:13;;;;;;;31.8;23.2;;;;;;;5.73;91.57813;953.3917;;;;
2019/12/16 16:57:09;;;;;;;31;22;;;;;;;5.65;92.18652;953.4727;;;;
2019/12/16 16:59:28;;;;;;;24.3;18.3;;;;;;;5.65;92.3916;953.4833;;;;
2019/12/16 17:01:56;;;;;;;24;16.7;;;;;;;5.64;92.96777;953.47;;;;
2019/12/16 17:04:18;;;;;;;23.3;14.8;;;;;;;5.63;94.65137;953.4506;;;;
2019/12/16 17:06:44;;;;;;;16.7;13.6;;;;;;;5.59;93.08301;953.4581;;;;
2019/12/16 17:09:08;;;;;;;15.3;12.2;;;;;;;5.68;92.44238;953.4041;;;;
2019/12/16 17:11:33;;;;;;;17.5;11.9;;;;;;;5.64;92.51465;953.3764;;;;
2019/12/16 17:13:58;;;;;;;13.6;11.2;;;;;;;5.63;92.27344;953.4045;;;;
2019/12/16 17:16:23;;;;;;;15.7;11.6;;;;;;;5.64;92.60352;953.3497;;;;
2019/12/16 17:18:48;;;;;;;15.9;11.9;;;;;;;5.77;91.38086;953.1794;;;;
2019/12/16 17:21:14;;;;;;;17.5;13.5;;;;;;;5.67;91.93066;953.2811;;;;
2019/12/16 17:23:39;;;;;;;19.2;14.2;;;;;;;5.61;92.98633;953.2366;;;;
2019/12/16 17:26:04;;;;;;;16.6;12.7;;;;;;;5.57;92.6582;953.2349;;;;
2019/12/16 17:28:29;;;;;;;25;20.5;;;;;;;5.6;92.67578;953.2703;;;;
2019/12/16 17:30:54;;;;;;;15.4;12;;;;;;;5.53;92.98047;953.1873;;;;
2019/12/16 17:33:19;;;;;;;16.2;11.9;;;;;;;5.52;93.55664;953.1775;;;;
2019/12/16 17:35:44;;;;;;;15;9.8;;;;;;;5.58;92.125;953.1016;;;;
2019/12/16 17:38:09;;;;;;;14.3;9.9;;;;;;;5.46;92.96484;952.999;;;;
2019/12/16 17:40:35;;;;;;;14;10.1;;;;;;;5.47;93.63574;953.0952;;;;
2019/12/16 17:43:00;;;;;;;13.9;9.8;;;;;;;5.5;93.43848;953.0823;;;;
2019/12/16 17:45:25;;;;;;;14.5;9.9;;;;;;;5.35;93.83789;953.057;;;;
2019/12/16 17:47:50;;;;;;;12.4;9.4;;;;;;;5.32;94.60645;953.0814;;;;
2019/12/16 17:50:15;;;;;;;14.8;11.6;;;;;;;5.37;94.01367;953.0675;;;;
2019/12/16 17:52:40;;;;;;;12.9;11.5;;;;;;;5.28;93.86914;953.0876;;;;
2019/12/16 17:55:06;;;;;;;14.6;11.9;;;;;;;5.25;94.25977;953.0617;;;;
2019/12/16 17:57:31;;;;;;;14.7;12.4;;;;;;;5.22;94.74219;953.0125;;;;
2019/12/16 17:59:56;;;;;;;14.6;12.4;;;;;;;5.21;94.62695;952.9645;;;;
2019/12/16 18:03:07;;;;;;;14.6;11.6;;;;;;;5.26;94.4209;953.0045;;;;
2019/12/16 18:04:47;;;;;;;14.2;10.9;;;;;;;5.3;93.82813;953.0123;;;;
2019/12/16 18:07:10;;;;;;;17.3;12;;;;;;;5.22;93.81055;952.918;;;;
2019/12/16 18:09:36;;;;;;;15.2;11.3;;;;;;;5.3;94.66895;952.9833;;;;
2019/12/16 18:12:01;;;;;;;14.1;10.8;;;;;;;5.35;93.13281;952.9554;;;;
2019/12/16 18:14:26;;;;;;;14.3;10.7;;;;;;;5.26;94;952.8494;;;;
2019/12/16 18:16:51;;;;;;;12.9;9.4;;;;;;;5.42;93.17285;952.8986;;;;
2019/12/16 18:19:16;;;;;;;12.6;9.2;;;;;;;5.15;94.26074;952.8886;;;;
2019/12/16 18:21:42;;;;;;;12.9;9.1;;;;;;;5.13;93.88086;953.0025;;;;
2019/12/16 18:24:06;;;;;;;11.8;8.4;;;;;;;5.23;93.67383;952.9721;;;;
2019/12/16 18:26:31;;;;;;;12.7;9.3;;;;;;;5.16;93.61426;952.921;;;;
2019/12/16 18:28:56;;;;;;;10.8;8.8;;;;;;;5.18;94.24316;952.8845;;;;
2019/12/16 18:31:21;;;;;;;14.9;9.5;;;;;;;5.26;93.03516;952.8455;;;;
2019/12/16 18:33:46;;;;;;;11.5;9.1;;;;;;;5.17;94.28711;952.9526;;;;
2019/12/16 18:36:11;;;;;;;13.2;10.2;;;;;;;4.99;94.26074;952.8611;;;;
2019/12/16 18:38:36;;;;;;;13.5;9.9;;;;;;;5.01;94.85352;952.8431;;;;
2019/12/16 18:41:01;;;;;;;13.8;9.8;;;;;;;5.11;93.44531;952.8558;;;;
2019/12/16 18:43:26;;;;;;;12.8;9.8;;;;;;;5.03;93.48633;952.8061;;;;
2019/12/16 18:45:56;;;;;;;12.9;9.1;;;;;;;4.85;94.44531;952.7894;;;;
2019/12/16 18:48:17;;;;;;;12.1;9.3;;;;;;;4.92;94.50586;952.6404;;;;
2019/12/16 18:50:42;;;;;;;12;9.5;;;;;;;5.01;93.31934;952.861;;;;
2019/12/16 18:53:07;;;;;;;13.3;9.5;;;;;;;4.99;94.15625;952.8069;;;;
2019/12/16 18:55:32;;;;;;;11.4;9.3;;;;;;;4.96;94.01465;952.8538;;;;
2019/12/16 18:57:57;;;;;;;11.1;9.2;;;;;;;5.02;93.38086;952.7651;;;;
2019/12/16 19:00:23;;;;;;;15.8;11.9;;;;;;;4.8;94.30762;952.6772;;;;
2019/12/16 19:02:48;;;;;;;12.6;9.8;;;;;;;4.97;94.42285;952.6241;;;;
2019/12/16 19:05:13;;;;;;;12;9.8;;;;;;;5;94.3877;952.7131;;;;
2019/12/16 19:07:38;;;;;;;13.1;9.7;;;;;;;5;93.95605;952.76;;;;
2019/12/16 19:10:03;;;;;;;12.7;9.3;;;;;;;4.88;93.72363;952.7419;;;;
2019/12/16 19:12:28;;;;;;;11.6;9.6;;;;;;;5;93.64746;952.6953;;;;
2019/12/16 19:14:53;;;;;;;11.4;9.9;;;;;;;5.02;93.55078;952.6448;;;;
2019/12/16 19:17:18;;;;;;;13.7;10.1;;;;;;;5.04;93.69141;952.7076;;;;
2019/12/16 19:19:43;;;;;;;13.5;9.7;;;;;;;4.84;94.03418;952.6145;;;;
2019/12/16 19:22:08;;;;;;;15.3;9.8;;;;;;;4.9;93.76367;952.6205;;;;
2019/12/16 19:24:33;;;;;;;14.6;9.7;;;;;;;4.81;95.01367;952.5773;;;;
2019/12/16 19:27:00;;;;;;;14.2;10.3;;;;;;;4.65;95.85254;952.5719;;;;
2019/12/16 19:29:32;;;;;;;13.9;10.1;;;;;;;4.83;95.51758;952.5377;;;;
2019/12/16 19:32:27;;;;;;;13.3;10.1;;;;;;;4.8;95.0918;952.5675;;;;
2019/12/16 19:34:20;;;;;;;11.2;10;;;;;;;4.79;94.7832;952.4922;;;;
2019/12/16 19:37:04;;;;;;;15.7;11;;;;;;;4.79;94.70313;952.4358;;;;
2019/12/16 19:39:05;;;;;;;17.5;11.9;;;;;;;4.79;95.06738;952.3664;;;;
2019/12/16 19:41:29;;;;;;;16.1;12.4;;;;;;;4.74;95.23633;952.4438;;;;
2019/12/16 19:43:54;;;;;;;17.9;13;;;;;;;4.64;95.38477;952.4983;;;;
2019/12/16 19:46:19;;;;;;;13.8;11.9;;;;;;;4.71;95.46875;952.4083;;;;
2019/12/16 19:48:44;;;;;;;13.5;10.9;;;;;;;4.79;94.88477;952.4059;;;;
2019/12/16 19:51:09;;;;;;;15.1;11.2;;;;;;;4.68;95.8584;952.3323;;;;
2019/12/16 19:53:34;;;;;;;17.6;11.9;;;;;;;4.67;95.89258;952.2847;;;;
2019/12/16 19:55:59;;;;;;;16.5;12.7;;;;;;;4.66;95.84277;952.2389;;;;
2019/12/16 19:58:24;;;;;;;21.9;17.5;;;;;;;4.73;94.83691;952.2729;;;;
2019/12/16 20:00:49;;;;;;;21.8;17.9;;;;;;;4.68;95.46289;952.238;;;;
2019/12/16 20:03:14;;;;;;;22.2;16.3;;;;;;;4.47;95.49414;952.0478;;;;
2019/12/16 20:05:39;;;;;;;15.2;12.2;;;;;;;4.49;95.89551;952.1219;;;;
2019/12/16 20:08:05;;;;;;;15.9;12.8;;;;;;;4.42;95.99316;952.1244;;;;
2019/12/16 20:10:30;;;;;;;15;12.3;;;;;;;4.51;95.76563;951.998;;;;
2019/12/16 20:12:55;;;;;;;80.3;58.5;;;;;;;4.63;94.80371;952.0258;;;;
2019/12/16 20:15:20;;;;;;;62.9;47.8;;;;;;;4.57;95.58496;952.0055;;;;
2019/12/16 20:17:45;;;;;;;42.9;32.9;;;;;;;4.48;95.8252;952.0569;;;;
2019/12/16 20:20:10;;;;;;;35.2;27.7;;;;;;;4.49;95.20313;952.0175;;;;
2019/12/16 20:22:35;;;;;;;32.2;25.2;;;;;;;4.54;94.98828;951.9917;;;;
2019/12/16 20:25:00;;;;;;;25.6;20.8;;;;;;;4.48;95.61133;951.9247;;;;
2019/12/16 20:27:25;;;;;;;60.5;42.7;;;;;;;4.54;95.5332;951.9409;;;;
2019/12/16 20:29:50;;;;;;;110.7;75;;;;;;;4.51;94.99414;951.9109;;;;
2019/12/16 20:32:24;;;;;;;127.8;85.4;;;;;;;4.45;96.18457;951.8601;;;;
2019/12/16 20:34:41;;;;;;;118.6;77.7;;;;;;;4.49;95.98633;951.9041;;;;
2019/12/16 20:37:06;;;;;;;84.8;54;;;;;;;4.45;95.78516;951.8478;;;;
2019/12/16 20:39:31;;;;;;;53;35.9;;;;;;;4.42;95.96973;951.6921;;;;
2019/12/16 20:41:56;;;;;;;67.7;43.9;;;;;;;4.44;96.28223;951.6986;;;;
2019/12/16 20:44:21;;;;;;;47.8;31.5;;;;;;;4.39;96.45215;951.7678;;;;
2019/12/16 20:46:46;;;;;;;30.1;20.4;;;;;;;4.38;96.80176;951.7289;;;;
2019/12/16 20:49:11;;;;;;;26.4;18.8;;;;;;;4.3;96.39941;951.7209;;;;
2019/12/16 20:51:36;;;;;;;20.2;14.5;;;;;;;4.36;96.09375;951.7025;;;;
2019/12/16 20:54:01;;;;;;;20;16;;;;;;;4.39;96.25879;951.6591;;;;
2019/12/16 20:56:26;;;;;;;20.6;15.3;;;;;;;4.34;96.85938;951.7012;;;;
2019/12/16 20:58:51;;;;;;;23.2;17.6;;;;;;;4.37;96.81055;951.7126;;;;
2019/12/16 21:01:17;;;;;;;28.9;22.6;;;;;;;4.44;96.1123;951.563;;;;
2019/12/16 21:03:42;;;;;;;40.3;28.8;;;;;;;4.28;96.54102;951.4741;;;;
2019/12/16 21:06:07;;;;;;;69.7;47.1;;;;;;;4.29;96.16699;951.5295;;;;
2019/12/16 21:08:32;;;;;;;49.9;30.9;;;;;;;4.24;96.44238;951.5611;;;;
2019/12/16 21:10:57;;;;;;;43.8;31.1;;;;;;;4.31;96.33203;951.577;;;;
2019/12/16 21:13:22;;;;;;;33.9;24.6;;;;;;;4.34;95.89551;951.6158;;;;
2019/12/16 21:15:47;;;;;;;26.8;19.4;;;;;;;4.29;96.38379;951.5651;;;;
2019/12/16 21:18:12;;;;;;;20.6;15.9;;;;;;;4.3;96.08008;951.4716;;;;
2019/12/16 21:20:37;;;;;;;20;15.5;;;;;;;4.23;96.13379;951.3989;;;;
2019/12/16 21:23:02;;;;;;;27.3;20.5;;;;;;;4.32;95.87988;951.37;;;;
2019/12/16 21:25:27;;;;;;;22.9;16.8;;;;;;;4.29;96.22559;951.3433;;;;
2019/12/16 21:27:52;;;;;;;25.6;19.5;;;;;;;4.21;96.59277;951.2303;;;;
2019/12/16 21:30:17;;;;;;;20.9;17;;;;;;;4.3;95.80957;951.25;;;;
2019/12/16 21:32:43;;;;;;;19.4;15.8;;;;;;;4.29;95.61523;951.2031;;;;
2019/12/16 21:35:08;;;;;;;20;15.8;;;;;;;4.23;95.89355;951.2594;;;;
2019/12/16 21:37:33;;;;;;;18.9;15.6;;;;;;;4.18;96.14453;951.2086;;;;
2019/12/16 21:39:58;;;;;;;16.6;14.9;;;;;;;4.15;96.43359;951.1964;;;;
2019/12/16 21:42:23;;;;;;;18.8;14.8;;;;;;;4.1;96.4209;951.2015;;;;
2019/12/16 21:44:48;;;;;;;18.3;14.6;;;;;;;4.15;95.89844;951.0842;;;;
2019/12/16 21:47:13;;;;;;;16.8;14.1;;;;;;;3.99;96.65723;951.1483;;;;
2019/12/16 21:49:38;;;;;;;16.3;13.9;;;;;;;4.02;97.00391;951.1829;;;;
2019/12/16 21:52:03;;;;;;;17.4;13.5;;;;;;;4.13;95.56543;951.2088;;;;
2019/12/16 21:54:28;;;;;;;16.2;13;;;;;;;4.06;96.56055;951.2517;;;;
2019/12/16 21:56:53;;;;;;;15.5;13.1;;;;;;;3.99;96.21582;951.2303;;;;
2019/12/16 21:59:18;;;;;;;16.2;12.9;;;;;;;4.07;95.87109;951.2249;;;;
2019/12/16 22:01:43;;;;;;;17;13;;;;;;;4.06;95.93652;951.23;;;;
2019/12/16 22:04:09;;;;;;;16.8;12.8;;;;;;;4.02;95.93848;951.2263;;;;
2019/12/16 22:06:34;;;;;;;17.6;13.2;;;;;;;3.95;96.83984;951.2639;;;;
2019/12/16 22:08:59;;;;;;;15;12.3;;;;;;;3.84;96.65723;951.3072;;;;
2019/12/16 22:11:24;;;;;;;14.7;12;;;;;;;3.92;96.68652;951.2913;;;;
2019/12/16 22:13:49;;;;;;;15.4;12;;;;;;;3.87;96.19824;951.2977;;;;
2019/12/16 22:16:14;;;;;;;16.6;12.5;;;;;;;3.81;96.76172;951.3118;;;;
2019/12/16 22:18:39;;;;;;;15.4;12.1;;;;;;;3.85;96.8418;951.3333;;;;
2019/12/16 22:21:04;;;;;;;15.2;11.9;;;;;;;3.87;96.4707;951.3137;;;;
2019/12/16 22:23:29;;;;;;;17.3;13.3;;;;;;;3.69;97.42676;951.3872;;;;
2019/12/16 22:25:55;;;;;;;15.2;12.4;;;;;;;3.94;96.04492;951.4052;;;;
2019/12/16 22:28:20;;;;;;;16.4;12.3;;;;;;;4.13;94.9082;951.387;;;;
2019/12/16 22:30:45;;;;;;;15;12;;;;;;;4.05;95.46777;951.4249;;;;
2019/12/16 22:33:10;;;;;;;14;11.6;;;;;;;4;96.27246;951.4465;;;;
2019/12/16 22:35:35;;;;;;;16.2;11.8;;;;;;;4.06;95.14355;951.3412;;;;
2019/12/16 22:38:00;;;;;;;15.1;13.2;;;;;;;3.84;96.78125;951.2831;;;;
2019/12/16 22:40:25;;;;;;;19.2;13.7;;;;;;;3.89;96.30664;951.3237;;;;
2019/12/16 22:42:50;;;;;;;16;13.4;;;;;;;4.04;95.39844;951.3182;;;;
2019/12/16 22:45:15;;;;;;;18.6;15;;;;;;;3.89;96.0459;951.3443;;;;
2019/12/16 22:47:40;;;;;;;21.7;15.3;;;;;;;3.97;95.5293;951.3158;;;;
2019/12/16 22:50:06;;;;;;;18.9;15.4;;;;;;;4.03;94.97656;951.2283;;;;
2019/12/16 22:52:31;;;;;;;19.9;17;;;;;;;3.85;95.94531;951.3186;;;;
2019/12/16 22:54:56;;;;;;;25.9;18.6;;;;;;;3.77;95.89258;951.4074;;;;
2019/12/16 22:57:21;;;;;;;20.6;17.7;;;;;;;3.78;96.91406;951.4438;;;;
2019/12/16 22:59:46;;;;;;;22.3;18.1;;;;;;;3.74;96.86133;951.4122;;;;
2019/12/16 23:02:11;;;;;;;21.3;16.8;;;;;;;3.8;96.26172;951.3734;;;;
2019/12/16 23:04:36;;;;;;;20.1;17.1;;;;;;;3.8;96.19336;951.3572;;;;
2019/12/16 23:07:01;;;;;;;22;19;;;;;;;3.49;98.43164;951.2556;;;;
2019/12/16 23:09:26;;;;;;;19.6;16.5;;;;;;;3.6;97.94043;951.2812;;;;
2019/12/16 23:11:51;;;;;;;22.2;17;;;;;;;3.71;97.72461;951.3246;;;;
2019/12/16 23:14:16;;;;;;;19.4;16.8;;;;;;;3.75;96.89941;951.2957;;;;
2019/12/16 23:16:44;;;;;;;20.6;16.9;;;;;;;3.67;97.96582;951.2783;;;;
2019/12/16 23:21:32;;;;;;;19.9;15.6;;;;;;;3.67;97.47852;951.2051;;;;
2019/12/16 23:23:57;;;;;;;18.1;14.9;;;;;;;3.73;97.42285;951.1521;;;;
2019/12/16 23:26:22;;;;;;;19.8;15.7;;;;;;;3.72;97.16309;951.1448;;;;
2019/12/16 23:28:47;;;;;;;18.6;15.6;;;;;;;3.72;97.62695;951.0892;;;;
2019/12/16 23:31:12;;;;;;;19.8;15.6;;;;;;;3.57;98.33984;951.0991;;;;
2019/12/16 23:33:37;;;;;;;17.8;14.9;;;;;;;3.67;97.53516;951.0376;;;;
2019/12/16 23:36:02;;;;;;;17.8;15.1;;;;;;;3.64;97.08594;950.9625;;;;
2019/12/16 23:38:27;;;;;;;17.9;14.7;;;;;;;3.63;97.62695;951.0195;;;;
2019/12/16 23:40:52;;;;;;;20.1;16.1;;;;;;;3.83;96.30371;951.079;;;;
2019/12/16 23:43:18;;;;;;;20.1;16.4;;;;;;;3.53;98.36523;951.0455;;;;
2019/12/16 23:45:43;;;;;;;19.5;16.1;;;;;;;3.49;98.32324;951.0956;;;;
2019/12/16 23:48:08;;;;;;;21.1;16.3;;;;;;;3.43;98.72559;951.1677;;;;
2019/12/16 23:50:33;;;;;;;20.7;16.5;;;;;;;3.4;98.66016;951.1096;;;;
2019/12/16 23:53:01;;;;;;;22.7;16.9;;;;;;;3.27;99.02734;951.0586;;;;
2019/12/16 23:55:23;;;;;;;18.3;15.8;;;;;;;3.43;98.66895;950.9398;;;;
2019/12/16 23:57:48;;;;;;;18.4;14.9;;;;;;;3.57;97.80762;950.9717;;;;
